sensor_id;sensor_type;location;lat;lon;timestamp;P1;durP1;ratioP1;P2;durP2;ratioP2
76550;SDS011;68768;53.156;18.164;2023-07-29T00:00:07;3.00;;;2.60;;
76550;SDS011;68768;53.156;18.164;2023-07-29T00:02:59;2.90;;;2.60;;
76550;SDS011;68768;53.156;18.164;2023-07-29T00:05:26;2.20;;;2.10;;
76550;SDS011;68768;53.156;18.164;2023-07-29T00:07:53;4.10;;;2.70;;
76550;SDS011;68768;53.156;18.164;2023-07-29T00:10:20;4.10;;;2.80;;
76550;SDS011;68768;53.156;18.164;2023-07-29T00:12:47;3.90;;;3.10;;
76550;SDS011;68768;53.156;18.164;2023-07-29T00:15:14;3.70;;;2.80;;
76550;SDS011;68768;53.156;18.164;2023-07-29T00:17:41;4.40;;;2.90;;
76550;SDS011;68768;53.156;18.164;2023-07-29T00:20:08;3.40;;;2.60;;
76550;SDS011;68768;53.156;18.164;2023-07-29T00:22:35;4.20;;;3.50;;
76550;SDS011;68768;53.156;18.164;2023-07-29T00:25:02;3.70;;;3.10;;
76550;SDS011;68768;53.156;18.164;2023-07-29T00:27:29;4.50;;;3.20;;
76550;SDS011;68768;53.156;18.164;2023-07-29T00:29:56;3.50;;;3.20;;
76550;SDS011;68768;53.156;18.164;2023-07-29T00:32:23;6.20;;;3.20;;
76550;SDS011;68768;53.156;18.164;2023-07-29T00:34:50;4.40;;;3.30;;
76550;SDS011;68768;53.156;18.164;2023-07-29T00:37:17;4.00;;;3.30;;
76550;SDS011;68768;53.156;18.164;2023-07-29T00:39:46;4.40;;;3.20;;
76550;SDS011;68768;53.156;18.164;2023-07-29T00:42:13;6.20;;;3.70;;
76550;SDS011;68768;53.156;18.164;2023-07-29T00:44:40;5.20;;;3.10;;
76550;SDS011;68768;53.156;18.164;2023-07-29T00:47:07;4.00;;;3.50;;
76550;SDS011;68768;53.156;18.164;2023-07-29T00:49:34;3.90;;;3.50;;
76550;SDS011;68768;53.156;18.164;2023-07-29T00:52:01;4.20;;;3.40;;
76550;SDS011;68768;53.156;18.164;2023-07-29T00:54:28;4.10;;;3.70;;
76550;SDS011;68768;53.156;18.164;2023-07-29T00:56:55;3.90;;;3.20;;
76550;SDS011;68768;53.156;18.164;2023-07-29T00:59:22;4.20;;;3.30;;
76550;SDS011;68768;53.156;18.164;2023-07-29T01:01:50;5.20;;;3.50;;
76550;SDS011;68768;53.156;18.164;2023-07-29T01:04:17;4.80;;;3.40;;
76550;SDS011;68768;53.156;18.164;2023-07-29T01:09:28;4.60;;;3.50;;
76550;SDS011;68768;53.156;18.164;2023-07-29T01:12:08;4.60;;;3.30;;
76550;SDS011;68768;53.156;18.164;2023-07-29T01:17:08;4.00;;;3.50;;
76550;SDS011;68768;53.156;18.164;2023-07-29T01:22:11;4.50;;;3.90;;
76550;SDS011;68768;53.156;18.164;2023-07-29T01:24:39;3.60;;;3.30;;
76550;SDS011;68768;53.156;18.164;2023-07-29T01:27:06;7.30;;;3.30;;
76550;SDS011;68768;53.156;18.164;2023-07-29T01:29:33;4.80;;;3.80;;
76550;SDS011;68768;53.156;18.164;2023-07-29T01:32:25;5.40;;;4.10;;
76550;SDS011;68768;53.156;18.164;2023-07-29T01:35:24;5.60;;;3.40;;
76550;SDS011;68768;53.156;18.164;2023-07-29T01:38:03;4.50;;;3.50;;
76550;SDS011;68768;53.156;18.164;2023-07-29T01:40:41;5.50;;;3.30;;
76550;SDS011;68768;53.156;18.164;2023-07-29T01:43:09;3.50;;;3.20;;
76550;SDS011;68768;53.156;18.164;2023-07-29T01:45:37;4.30;;;3.40;;
76550;SDS011;68768;53.156;18.164;2023-07-29T01:48:06;4.70;;;3.30;;
76550;SDS011;68768;53.156;18.164;2023-07-29T01:50:34;4.30;;;3.10;;
76550;SDS011;68768;53.156;18.164;2023-07-29T01:53:01;5.00;;;3.40;;
76550;SDS011;68768;53.156;18.164;2023-07-29T01:55:28;6.90;;;3.40;;
76550;SDS011;68768;53.156;18.164;2023-07-29T01:57:55;5.30;;;3.00;;
76550;SDS011;68768;53.156;18.164;2023-07-29T02:00:23;4.20;;;3.20;;
76550;SDS011;68768;53.156;18.164;2023-07-29T02:02:50;3.70;;;3.10;;
76550;SDS011;68768;53.156;18.164;2023-07-29T02:05:17;5.00;;;3.40;;
76550;SDS011;68768;53.156;18.164;2023-07-29T02:07:44;4.50;;;3.40;;
76550;SDS011;68768;53.156;18.164;2023-07-29T02:10:11;4.30;;;3.20;;
76550;SDS011;68768;53.156;18.164;2023-07-29T02:12:38;4.50;;;3.30;;
76550;SDS011;68768;53.156;18.164;2023-07-29T02:15:05;3.70;;;3.30;;
76550;SDS011;68768;53.156;18.164;2023-07-29T02:17:33;3.50;;;3.20;;
76550;SDS011;68768;53.156;18.164;2023-07-29T02:20:01;5.00;;;3.30;;
76550;SDS011;68768;53.156;18.164;2023-07-29T02:22:28;4.10;;;3.20;;
76550;SDS011;68768;53.156;18.164;2023-07-29T02:24:55;4.00;;;3.30;;
76550;SDS011;68768;53.156;18.164;2023-07-29T02:27:22;5.10;;;3.30;;
76550;SDS011;68768;53.156;18.164;2023-07-29T02:29:52;3.70;;;3.30;;
76550;SDS011;68768;53.156;18.164;2023-07-29T02:32:19;4.30;;;3.10;;
76550;SDS011;68768;53.156;18.164;2023-07-29T02:34:46;4.30;;;3.60;;
76550;SDS011;68768;53.156;18.164;2023-07-29T02:37:14;6.10;;;3.60;;
76550;SDS011;68768;53.156;18.164;2023-07-29T02:39:41;4.10;;;3.40;;
76550;SDS011;68768;53.156;18.164;2023-07-29T02:42:08;6.20;;;4.10;;
76550;SDS011;68768;53.156;18.164;2023-07-29T02:44:35;4.20;;;3.30;;
76550;SDS011;68768;53.156;18.164;2023-07-29T02:47:02;4.60;;;3.60;;
76550;SDS011;68768;53.156;18.164;2023-07-29T02:49:29;5.00;;;3.80;;
76550;SDS011;68768;53.156;18.164;2023-07-29T02:51:56;4.20;;;3.50;;
76550;SDS011;68768;53.156;18.164;2023-07-29T02:54:23;4.30;;;3.40;;
76550;SDS011;68768;53.156;18.164;2023-07-29T02:56:50;4.50;;;3.70;;
76550;SDS011;68768;53.156;18.164;2023-07-29T02:59:17;4.00;;;3.60;;
76550;SDS011;68768;53.156;18.164;2023-07-29T03:01:44;5.50;;;3.90;;
76550;SDS011;68768;53.156;18.164;2023-07-29T03:04:11;6.70;;;3.80;;
76550;SDS011;68768;53.156;18.164;2023-07-29T03:06:39;4.20;;;3.60;;
76550;SDS011;68768;53.156;18.164;2023-07-29T03:09:06;4.90;;;3.60;;
76550;SDS011;68768;53.156;18.164;2023-07-29T03:11:33;4.40;;;3.80;;
76550;SDS011;68768;53.156;18.164;2023-07-29T03:14:00;5.30;;;3.50;;
76550;SDS011;68768;53.156;18.164;2023-07-29T03:16:27;5.90;;;4.00;;
76550;SDS011;68768;53.156;18.164;2023-07-29T03:18:55;4.30;;;3.90;;
76550;SDS011;68768;53.156;18.164;2023-07-29T03:21:22;4.30;;;3.70;;
76550;SDS011;68768;53.156;18.164;2023-07-29T03:23:49;4.90;;;3.30;;
76550;SDS011;68768;53.156;18.164;2023-07-29T03:26:16;4.10;;;3.30;;
76550;SDS011;68768;53.156;18.164;2023-07-29T03:28:43;6.00;;;3.50;;
76550;SDS011;68768;53.156;18.164;2023-07-29T03:31:10;5.20;;;3.70;;
76550;SDS011;68768;53.156;18.164;2023-07-29T03:33:38;4.90;;;4.30;;
76550;SDS011;68768;53.156;18.164;2023-07-29T03:36:05;6.00;;;4.50;;
76550;SDS011;68768;53.156;18.164;2023-07-29T03:38:32;6.60;;;5.40;;
76550;SDS011;68768;53.156;18.164;2023-07-29T03:41:07;6.70;;;4.90;;
76550;SDS011;68768;53.156;18.164;2023-07-29T03:43:35;7.20;;;4.80;;
76550;SDS011;68768;53.156;18.164;2023-07-29T03:46:02;6.40;;;4.70;;
76550;SDS011;68768;53.156;18.164;2023-07-29T03:48:29;8.10;;;5.20;;
76550;SDS011;68768;53.156;18.164;2023-07-29T03:50:57;8.20;;;5.20;;
76550;SDS011;68768;53.156;18.164;2023-07-29T03:53:24;7.20;;;5.40;;
76550;SDS011;68768;53.156;18.164;2023-07-29T03:55:52;7.50;;;5.50;;
76550;SDS011;68768;53.156;18.164;2023-07-29T03:58:19;6.40;;;5.30;;
76550;SDS011;68768;53.156;18.164;2023-07-29T04:00:46;8.00;;;5.70;;
76550;SDS011;68768;53.156;18.164;2023-07-29T04:03:13;6.30;;;5.50;;
76550;SDS011;68768;53.156;18.164;2023-07-29T04:05:40;8.70;;;5.90;;
76550;SDS011;68768;53.156;18.164;2023-07-29T04:08:07;11.20;;;7.10;;
76550;SDS011;68768;53.156;18.164;2023-07-29T04:10:34;13.80;;;7.90;;
76550;SDS011;68768;53.156;18.164;2023-07-29T04:13:01;13.50;;;7.60;;
76550;SDS011;68768;53.156;18.164;2023-07-29T04:15:29;15.90;;;7.50;;
76550;SDS011;68768;53.156;18.164;2023-07-29T04:17:57;10.10;;;7.00;;
76550;SDS011;68768;53.156;18.164;2023-07-29T04:20:24;10.40;;;6.70;;
76550;SDS011;68768;53.156;18.164;2023-07-29T04:22:51;11.40;;;6.90;;
76550;SDS011;68768;53.156;18.164;2023-07-29T04:25:18;10.60;;;6.50;;
76550;SDS011;68768;53.156;18.164;2023-07-29T04:27:45;8.60;;;6.10;;
76550;SDS011;68768;53.156;18.164;2023-07-29T04:30:12;10.90;;;5.60;;
76550;SDS011;68768;53.156;18.164;2023-07-29T04:32:39;10.80;;;5.60;;
76550;SDS011;68768;53.156;18.164;2023-07-29T04:35:08;6.10;;;4.60;;
76550;SDS011;68768;53.156;18.164;2023-07-29T04:37:37;7.70;;;6.40;;
76550;SDS011;68768;53.156;18.164;2023-07-29T04:40:04;6.00;;;4.50;;
76550;SDS011;68768;53.156;18.164;2023-07-29T04:42:32;6.10;;;5.10;;
76550;SDS011;68768;53.156;18.164;2023-07-29T04:44:59;7.40;;;5.70;;
76550;SDS011;68768;53.156;18.164;2023-07-29T04:47:25;7.50;;;5.60;;
76550;SDS011;68768;53.156;18.164;2023-07-29T04:49:52;6.50;;;5.50;;
76550;SDS011;68768;53.156;18.164;2023-07-29T04:52:19;8.60;;;5.40;;
76550;SDS011;68768;53.156;18.164;2023-07-29T04:54:47;8.80;;;6.30;;
76550;SDS011;68768;53.156;18.164;2023-07-29T04:57:14;22.50;;;14.00;;
76550;SDS011;68768;53.156;18.164;2023-07-29T04:59:41;14.20;;;9.10;;
76550;SDS011;68768;53.156;18.164;2023-07-29T05:02:08;16.30;;;11.00;;
76550;SDS011;68768;53.156;18.164;2023-07-29T05:04:35;9.50;;;7.00;;
76550;SDS011;68768;53.156;18.164;2023-07-29T05:07:03;10.50;;;7.80;;
76550;SDS011;68768;53.156;18.164;2023-07-29T05:09:30;8.10;;;6.10;;
76550;SDS011;68768;53.156;18.164;2023-07-29T05:11:57;5.70;;;5.10;;
76550;SDS011;68768;53.156;18.164;2023-07-29T05:14:24;6.20;;;5.30;;
76550;SDS011;68768;53.156;18.164;2023-07-29T05:16:52;16.60;;;11.00;;
76550;SDS011;68768;53.156;18.164;2023-07-29T05:19:19;7.70;;;6.00;;
76550;SDS011;68768;53.156;18.164;2023-07-29T05:21:46;16.70;;;10.40;;
76550;SDS011;68768;53.156;18.164;2023-07-29T05:24:13;10.30;;;7.10;;
76550;SDS011;68768;53.156;18.164;2023-07-29T05:26:40;10.00;;;7.40;;
76550;SDS011;68768;53.156;18.164;2023-07-29T05:29:07;8.50;;;7.00;;
76550;SDS011;68768;53.156;18.164;2023-07-29T05:31:34;8.20;;;5.20;;
76550;SDS011;68768;53.156;18.164;2023-07-29T05:34:01;5.10;;;4.50;;
76550;SDS011;68768;53.156;18.164;2023-07-29T05:36:28;4.30;;;3.90;;
76550;SDS011;68768;53.156;18.164;2023-07-29T05:38:55;5.40;;;4.70;;
76550;SDS011;68768;53.156;18.164;2023-07-29T05:41:29;16.60;;;12.00;;
76550;SDS011;68768;53.156;18.164;2023-07-29T05:43:56;7.40;;;5.10;;
76550;SDS011;68768;53.156;18.164;2023-07-29T05:46:23;6.00;;;4.40;;
76550;SDS011;68768;53.156;18.164;2023-07-29T05:48:51;5.10;;;4.10;;
76550;SDS011;68768;53.156;18.164;2023-07-29T05:51:18;7.20;;;4.50;;
76550;SDS011;68768;53.156;18.164;2023-07-29T05:53:45;7.10;;;5.00;;
76550;SDS011;68768;53.156;18.164;2023-07-29T05:56:13;5.70;;;4.50;;
76550;SDS011;68768;53.156;18.164;2023-07-29T05:58:40;4.60;;;3.60;;
76550;SDS011;68768;53.156;18.164;2023-07-29T06:01:07;5.30;;;3.40;;
76550;SDS011;68768;53.156;18.164;2023-07-29T06:03:34;6.70;;;3.90;;
76550;SDS011;68768;53.156;18.164;2023-07-29T06:06:01;5.90;;;3.70;;
76550;SDS011;68768;53.156;18.164;2023-07-29T06:08:29;5.90;;;3.60;;
76550;SDS011;68768;53.156;18.164;2023-07-29T06:10:56;5.10;;;3.70;;
76550;SDS011;68768;53.156;18.164;2023-07-29T06:13:23;4.90;;;3.40;;
76550;SDS011;68768;53.156;18.164;2023-07-29T06:15:50;4.10;;;3.20;;
76550;SDS011;68768;53.156;18.164;2023-07-29T06:18:17;3.90;;;3.00;;
76550;SDS011;68768;53.156;18.164;2023-07-29T06:20:44;3.50;;;3.10;;
76550;SDS011;68768;53.156;18.164;2023-07-29T06:23:11;5.00;;;3.40;;
76550;SDS011;68768;53.156;18.164;2023-07-29T06:25:38;3.80;;;3.50;;
76550;SDS011;68768;53.156;18.164;2023-07-29T06:28:05;3.00;;;2.70;;
76550;SDS011;68768;53.156;18.164;2023-07-29T06:30:32;2.70;;;2.50;;
76550;SDS011;68768;53.156;18.164;2023-07-29T06:32:59;2.50;;;2.20;;
76550;SDS011;68768;53.156;18.164;2023-07-29T06:35:26;4.00;;;3.20;;
76550;SDS011;68768;53.156;18.164;2023-07-29T06:37:53;3.20;;;2.90;;
76550;SDS011;68768;53.156;18.164;2023-07-29T06:40:20;3.30;;;2.70;;
76550;SDS011;68768;53.156;18.164;2023-07-29T06:42:47;3.90;;;2.60;;
76550;SDS011;68768;53.156;18.164;2023-07-29T06:45:14;3.00;;;2.30;;
76550;SDS011;68768;53.156;18.164;2023-07-29T06:47:42;4.00;;;3.20;;
76550;SDS011;68768;53.156;18.164;2023-07-29T06:50:09;3.90;;;3.50;;
76550;SDS011;68768;53.156;18.164;2023-07-29T06:52:36;3.10;;;2.80;;
76550;SDS011;68768;53.156;18.164;2023-07-29T06:55:05;2.30;;;2.20;;
76550;SDS011;68768;53.156;18.164;2023-07-29T06:57:32;2.70;;;2.40;;
76550;SDS011;68768;53.156;18.164;2023-07-29T06:59:59;4.40;;;2.70;;
76550;SDS011;68768;53.156;18.164;2023-07-29T07:02:27;3.10;;;2.10;;
76550;SDS011;68768;53.156;18.164;2023-07-29T07:04:55;2.30;;;2.10;;
76550;SDS011;68768;53.156;18.164;2023-07-29T07:07:22;3.10;;;2.10;;
76550;SDS011;68768;53.156;18.164;2023-07-29T07:09:49;2.20;;;2.00;;
76550;SDS011;68768;53.156;18.164;2023-07-29T07:12:16;3.30;;;2.40;;
76550;SDS011;68768;53.156;18.164;2023-07-29T07:14:43;2.30;;;1.90;;
76550;SDS011;68768;53.156;18.164;2023-07-29T07:17:10;2.00;;;1.80;;
76550;SDS011;68768;53.156;18.164;2023-07-29T07:19:37;2.50;;;2.20;;
76550;SDS011;68768;53.156;18.164;2023-07-29T07:22:04;2.70;;;2.10;;
76550;SDS011;68768;53.156;18.164;2023-07-29T07:24:31;2.60;;;2.00;;
76550;SDS011;68768;53.156;18.164;2023-07-29T07:26:58;2.50;;;2.20;;
76550;SDS011;68768;53.156;18.164;2023-07-29T07:29:25;2.40;;;1.90;;
76550;SDS011;68768;53.156;18.164;2023-07-29T07:31:53;2.90;;;2.10;;
76550;SDS011;68768;53.156;18.164;2023-07-29T07:34:21;2.00;;;1.60;;
76550;SDS011;68768;53.156;18.164;2023-07-29T07:36:49;5.90;;;2.40;;
76550;SDS011;68768;53.156;18.164;2023-07-29T07:39:16;3.80;;;2.30;;
76550;SDS011;68768;53.156;18.164;2023-07-29T07:41:43;4.90;;;2.90;;
76550;SDS011;68768;53.156;18.164;2023-07-29T07:44:10;2.90;;;2.10;;
76550;SDS011;68768;53.156;18.164;2023-07-29T07:46:41;2.90;;;2.60;;
76550;SDS011;68768;53.156;18.164;2023-07-29T07:49:09;3.10;;;2.50;;
76550;SDS011;68768;53.156;18.164;2023-07-29T07:51:36;3.40;;;2.70;;
76550;SDS011;68768;53.156;18.164;2023-07-29T07:54:03;2.20;;;1.90;;
76550;SDS011;68768;53.156;18.164;2023-07-29T07:56:30;2.00;;;1.60;;
76550;SDS011;68768;53.156;18.164;2023-07-29T07:58:57;10.60;;;7.20;;
76550;SDS011;68768;53.156;18.164;2023-07-29T08:01:24;3.60;;;2.90;;
76550;SDS011;68768;53.156;18.164;2023-07-29T08:03:51;1.70;;;1.60;;
76550;SDS011;68768;53.156;18.164;2023-07-29T08:06:18;2.70;;;2.20;;
76550;SDS011;68768;53.156;18.164;2023-07-29T08:08:45;9.90;;;7.50;;
76550;SDS011;68768;53.156;18.164;2023-07-29T08:11:12;6.60;;;5.70;;
76550;SDS011;68768;53.156;18.164;2023-07-29T08:13:39;2.40;;;1.80;;
76550;SDS011;68768;53.156;18.164;2023-07-29T08:16:06;2.00;;;1.90;;
76550;SDS011;68768;53.156;18.164;2023-07-29T08:18:33;1.90;;;1.70;;
76550;SDS011;68768;53.156;18.164;2023-07-29T08:21:00;1.80;;;1.50;;
76550;SDS011;68768;53.156;18.164;2023-07-29T08:23:31;1.40;;;1.20;;
76550;SDS011;68768;53.156;18.164;2023-07-29T08:25:59;1.30;;;1.20;;
76550;SDS011;68768;53.156;18.164;2023-07-29T08:28:30;3.50;;;2.50;;
76550;SDS011;68768;53.156;18.164;2023-07-29T08:31:04;1.60;;;1.50;;
76550;SDS011;68768;53.156;18.164;2023-07-29T08:33:32;1.70;;;1.30;;
76550;SDS011;68768;53.156;18.164;2023-07-29T08:36:00;1.40;;;1.30;;
76550;SDS011;68768;53.156;18.164;2023-07-29T08:38:27;2.10;;;1.90;;
76550;SDS011;68768;53.156;18.164;2023-07-29T08:43:56;3.10;;;2.00;;
76550;SDS011;68768;53.156;18.164;2023-07-29T08:46:30;1.30;;;1.20;;
76550;SDS011;68768;53.156;18.164;2023-07-29T08:48:58;1.70;;;1.60;;
76550;SDS011;68768;53.156;18.164;2023-07-29T08:51:26;2.30;;;1.30;;
76550;SDS011;68768;53.156;18.164;2023-07-29T08:53:54;2.80;;;1.40;;
76550;SDS011;68768;53.156;18.164;2023-07-29T08:56:22;2.80;;;1.60;;
76550;SDS011;68768;53.156;18.164;2023-07-29T08:58:50;1.80;;;1.20;;
76550;SDS011;68768;53.156;18.164;2023-07-29T09:01:18;1.40;;;1.20;;
76550;SDS011;68768;53.156;18.164;2023-07-29T09:03:45;1.80;;;1.60;;
76550;SDS011;68768;53.156;18.164;2023-07-29T09:06:12;2.70;;;1.30;;
76550;SDS011;68768;53.156;18.164;2023-07-29T09:08:41;1.70;;;1.20;;
76550;SDS011;68768;53.156;18.164;2023-07-29T09:11:08;2.70;;;1.60;;
76550;SDS011;68768;53.156;18.164;2023-07-29T09:13:35;1.20;;;1.10;;
76550;SDS011;68768;53.156;18.164;2023-07-29T09:16:02;1.80;;;1.30;;
76550;SDS011;68768;53.156;18.164;2023-07-29T09:18:30;2.40;;;1.40;;
76550;SDS011;68768;53.156;18.164;2023-07-29T09:20:58;5.30;;;1.60;;
76550;SDS011;68768;53.156;18.164;2023-07-29T09:23:27;2.60;;;1.90;;
76550;SDS011;68768;53.156;18.164;2023-07-29T09:26:01;2.50;;;1.40;;
76550;SDS011;68768;53.156;18.164;2023-07-29T09:28:32;1.40;;;1.30;;
76550;SDS011;68768;53.156;18.164;2023-07-29T09:31:03;3.50;;;1.20;;
76550;SDS011;68768;53.156;18.164;2023-07-29T09:33:34;3.60;;;1.60;;
76550;SDS011;68768;53.156;18.164;2023-07-29T09:36:08;1.90;;;1.50;;
76550;SDS011;68768;53.156;18.164;2023-07-29T09:38:36;2.20;;;1.20;;
76550;SDS011;68768;53.156;18.164;2023-07-29T09:41:04;2.10;;;1.30;;
76550;SDS011;68768;53.156;18.164;2023-07-29T09:43:32;5.70;;;1.40;;
76550;SDS011;68768;53.156;18.164;2023-07-29T09:46:00;1.20;;;1.10;;
76550;SDS011;68768;53.156;18.164;2023-07-29T09:48:32;2.10;;;1.30;;
76550;SDS011;68768;53.156;18.164;2023-07-29T09:51:13;1.20;;;1.10;;
76550;SDS011;68768;53.156;18.164;2023-07-29T09:53:42;1.90;;;1.50;;
76550;SDS011;68768;53.156;18.164;2023-07-29T09:56:10;1.80;;;1.20;;
76550;SDS011;68768;53.156;18.164;2023-07-29T09:58:38;2.10;;;1.00;;
76550;SDS011;68768;53.156;18.164;2023-07-29T10:01:06;2.20;;;1.30;;
76550;SDS011;68768;53.156;18.164;2023-07-29T10:03:33;1.80;;;1.30;;
76550;SDS011;68768;53.156;18.164;2023-07-29T10:06:02;1.70;;;1.40;;
76550;SDS011;68768;53.156;18.164;2023-07-29T10:08:31;2.30;;;1.30;;
76550;SDS011;68768;53.156;18.164;2023-07-29T10:10:59;8.20;;;6.50;;
76550;SDS011;68768;53.156;18.164;2023-07-29T10:13:26;1.70;;;1.30;;
76550;SDS011;68768;53.156;18.164;2023-07-29T10:15:54;2.70;;;1.20;;
76550;SDS011;68768;53.156;18.164;2023-07-29T10:18:24;1.30;;;1.20;;
76550;SDS011;68768;53.156;18.164;2023-07-29T10:20:53;2.40;;;1.20;;
76550;SDS011;68768;53.156;18.164;2023-07-29T10:23:23;1.60;;;1.20;;
76550;SDS011;68768;53.156;18.164;2023-07-29T10:25:58;1.70;;;1.40;;
76550;SDS011;68768;53.156;18.164;2023-07-29T10:28:32;1.20;;;1.10;;
76550;SDS011;68768;53.156;18.164;2023-07-29T10:30:59;1.90;;;1.10;;
76550;SDS011;68768;53.156;18.164;2023-07-29T10:33:26;1.30;;;1.20;;
76550;SDS011;68768;53.156;18.164;2023-07-29T10:35:53;3.70;;;1.20;;
76550;SDS011;68768;53.156;18.164;2023-07-29T10:38:21;3.00;;;1.20;;
76550;SDS011;68768;53.156;18.164;2023-07-29T10:40:54;1.20;;;1.10;;
76550;SDS011;68768;53.156;18.164;2023-07-29T10:43:42;2.00;;;0.90;;
76550;SDS011;68768;53.156;18.164;2023-07-29T10:46:16;1.40;;;1.10;;
76550;SDS011;68768;53.156;18.164;2023-07-29T10:48:51;1.80;;;1.70;;
76550;SDS011;68768;53.156;18.164;2023-07-29T10:51:25;7.10;;;4.30;;
76550;SDS011;68768;53.156;18.164;2023-07-29T10:53:56;4.40;;;2.90;;
76550;SDS011;68768;53.156;18.164;2023-07-29T10:56:29;2.00;;;1.30;;
76550;SDS011;68768;53.156;18.164;2023-07-29T10:59:43;1.40;;;1.30;;
76550;SDS011;68768;53.156;18.164;2023-07-29T11:02:00;1.80;;;1.10;;
76550;SDS011;68768;53.156;18.164;2023-07-29T11:04:31;2.20;;;0.90;;
76550;SDS011;68768;53.156;18.164;2023-07-29T11:09:38;0.90;;;0.90;;
76550;SDS011;68768;53.156;18.164;2023-07-29T11:12:32;4.70;;;1.10;;
76550;SDS011;68768;53.156;18.164;2023-07-29T11:17:38;1.40;;;1.30;;
76550;SDS011;68768;53.156;18.164;2023-07-29T11:20:10;1.30;;;1.20;;
76550;SDS011;68768;53.156;18.164;2023-07-29T11:22:38;1.60;;;1.50;;
76550;SDS011;68768;53.156;18.164;2023-07-29T11:25:06;1.10;;;1.10;;
76550;SDS011;68768;53.156;18.164;2023-07-29T11:27:36;3.80;;;3.30;;
76550;SDS011;68768;53.156;18.164;2023-07-29T11:30:05;10.80;;;7.30;;
76550;SDS011;68768;53.156;18.164;2023-07-29T11:32:34;1.10;;;1.00;;
76550;SDS011;68768;53.156;18.164;2023-07-29T11:35:02;1.70;;;1.00;;
76550;SDS011;68768;53.156;18.164;2023-07-29T11:37:32;1.40;;;1.30;;
76550;SDS011;68768;53.156;18.164;2023-07-29T11:40:03;1.00;;;0.80;;
76550;SDS011;68768;53.156;18.164;2023-07-29T11:42:32;0.80;;;0.80;;
76550;SDS011;68768;53.156;18.164;2023-07-29T11:45:03;1.40;;;1.30;;
76550;SDS011;68768;53.156;18.164;2023-07-29T11:50:05;2.40;;;1.80;;
76550;SDS011;68768;53.156;18.164;2023-07-29T11:52:37;1.60;;;1.10;;
76550;SDS011;68768;53.156;18.164;2023-07-29T11:55:04;3.50;;;0.90;;
76550;SDS011;68768;53.156;18.164;2023-07-29T11:57:35;4.70;;;1.20;;
76550;SDS011;68768;53.156;18.164;2023-07-29T12:00:04;1.00;;;0.90;;
76550;SDS011;68768;53.156;18.164;2023-07-29T12:02:39;0.80;;;0.80;;
76550;SDS011;68768;53.156;18.164;2023-07-29T12:05:08;1.20;;;0.90;;
76550;SDS011;68768;53.156;18.164;2023-07-29T12:07:38;0.90;;;0.90;;
76550;SDS011;68768;53.156;18.164;2023-07-29T12:10:06;1.10;;;0.90;;
76550;SDS011;68768;53.156;18.164;2023-07-29T12:12:43;1.00;;;0.90;;
76550;SDS011;68768;53.156;18.164;2023-07-29T12:15:11;0.90;;;0.90;;
76550;SDS011;68768;53.156;18.164;2023-07-29T12:17:39;3.00;;;2.10;;
76550;SDS011;68768;53.156;18.164;2023-07-29T12:20:08;2.80;;;1.60;;
76550;SDS011;68768;53.156;18.164;2023-07-29T12:22:37;6.90;;;4.40;;
76550;SDS011;68768;53.156;18.164;2023-07-29T12:25:04;3.40;;;2.30;;
76550;SDS011;68768;53.156;18.164;2023-07-29T12:27:31;0.90;;;0.90;;
76550;SDS011;68768;53.156;18.164;2023-07-29T12:30:00;1.80;;;1.30;;
76550;SDS011;68768;53.156;18.164;2023-07-29T12:32:30;2.10;;;1.70;;
76550;SDS011;68768;53.156;18.164;2023-07-29T12:34:57;1.20;;;1.10;;
76550;SDS011;68768;53.156;18.164;2023-07-29T12:37:33;1.30;;;1.00;;
76550;SDS011;68768;53.156;18.164;2023-07-29T12:40:00;5.70;;;3.10;;
76550;SDS011;68768;53.156;18.164;2023-07-29T12:42:28;2.90;;;2.30;;
76550;SDS011;68768;53.156;18.164;2023-07-29T12:44:55;1.30;;;1.20;;
76550;SDS011;68768;53.156;18.164;2023-07-29T12:47:23;1.70;;;1.30;;
76550;SDS011;68768;53.156;18.164;2023-07-29T12:49:50;3.30;;;1.10;;
76550;SDS011;68768;53.156;18.164;2023-07-29T12:52:17;1.10;;;1.00;;
76550;SDS011;68768;53.156;18.164;2023-07-29T12:54:44;2.10;;;1.10;;
76550;SDS011;68768;53.156;18.164;2023-07-29T12:57:11;1.90;;;1.40;;
76550;SDS011;68768;53.156;18.164;2023-07-29T12:59:38;1.30;;;1.20;;
76550;SDS011;68768;53.156;18.164;2023-07-29T13:02:05;1.80;;;1.60;;
76550;SDS011;68768;53.156;18.164;2023-07-29T13:04:32;1.30;;;1.20;;
76550;SDS011;68768;53.156;18.164;2023-07-29T13:06:59;3.00;;;1.50;;
76550;SDS011;68768;53.156;18.164;2023-07-29T13:09:26;2.10;;;1.50;;
76550;SDS011;68768;53.156;18.164;2023-07-29T13:11:54;4.50;;;2.80;;
76550;SDS011;68768;53.156;18.164;2023-07-29T13:14:21;20.00;;;10.50;;
76550;SDS011;68768;53.156;18.164;2023-07-29T13:16:48;3.00;;;2.10;;
76550;SDS011;68768;53.156;18.164;2023-07-29T13:19:16;4.60;;;2.70;;
76550;SDS011;68768;53.156;18.164;2023-07-29T13:21:43;2.70;;;1.40;;
76550;SDS011;68768;53.156;18.164;2023-07-29T13:24:10;2.60;;;2.10;;
76550;SDS011;68768;53.156;18.164;2023-07-29T13:26:37;2.90;;;1.80;;
76550;SDS011;68768;53.156;18.164;2023-07-29T13:29:05;1.90;;;1.60;;
76550;SDS011;68768;53.156;18.164;2023-07-29T13:31:32;3.00;;;2.70;;
76550;SDS011;68768;53.156;18.164;2023-07-29T13:33:59;7.70;;;5.60;;
76550;SDS011;68768;53.156;18.164;2023-07-29T13:36:26;2.50;;;2.10;;
76550;SDS011;68768;53.156;18.164;2023-07-29T13:38:53;2.10;;;1.90;;
76550;SDS011;68768;53.156;18.164;2023-07-29T13:41:20;2.10;;;1.90;;
76550;SDS011;68768;53.156;18.164;2023-07-29T13:43:47;2.20;;;1.90;;
76550;SDS011;68768;53.156;18.164;2023-07-29T13:46:14;2.70;;;1.80;;
76550;SDS011;68768;53.156;18.164;2023-07-29T13:48:41;2.10;;;1.50;;
76550;SDS011;68768;53.156;18.164;2023-07-29T13:51:08;1.70;;;1.40;;
76550;SDS011;68768;53.156;18.164;2023-07-29T13:53:35;2.50;;;1.60;;
76550;SDS011;68768;53.156;18.164;2023-07-29T13:56:02;4.00;;;1.40;;
76550;SDS011;68768;53.156;18.164;2023-07-29T13:58:31;4.10;;;1.60;;
76550;SDS011;68768;53.156;18.164;2023-07-29T14:00:58;1.40;;;1.30;;
76550;SDS011;68768;53.156;18.164;2023-07-29T14:03:25;3.20;;;1.60;;
76550;SDS011;68768;53.156;18.164;2023-07-29T14:05:52;3.00;;;1.80;;
76550;SDS011;68768;53.156;18.164;2023-07-29T14:08:19;2.80;;;1.50;;
76550;SDS011;68768;53.156;18.164;2023-07-29T14:10:46;2.80;;;1.50;;
76550;SDS011;68768;53.156;18.164;2023-07-29T14:13:13;1.40;;;1.30;;
76550;SDS011;68768;53.156;18.164;2023-07-29T14:15:40;1.40;;;1.30;;
76550;SDS011;68768;53.156;18.164;2023-07-29T14:18:07;2.50;;;1.50;;
76550;SDS011;68768;53.156;18.164;2023-07-29T14:20:35;2.20;;;1.20;;
76550;SDS011;68768;53.156;18.164;2023-07-29T14:23:02;1.20;;;1.20;;
76550;SDS011;68768;53.156;18.164;2023-07-29T14:25:29;1.50;;;1.40;;
76550;SDS011;68768;53.156;18.164;2023-07-29T14:27:56;1.60;;;1.50;;
76550;SDS011;68768;53.156;18.164;2023-07-29T14:30:23;3.40;;;1.70;;
76550;SDS011;68768;53.156;18.164;2023-07-29T14:32:51;2.10;;;1.60;;
76550;SDS011;68768;53.156;18.164;2023-07-29T14:35:18;1.40;;;1.30;;
76550;SDS011;68768;53.156;18.164;2023-07-29T14:37:45;2.70;;;1.70;;
76550;SDS011;68768;53.156;18.164;2023-07-29T14:40:12;2.80;;;1.40;;
76550;SDS011;68768;53.156;18.164;2023-07-29T14:42:38;2.60;;;1.70;;
76550;SDS011;68768;53.156;18.164;2023-07-29T14:45:06;2.20;;;1.30;;
76550;SDS011;68768;53.156;18.164;2023-07-29T14:47:33;1.30;;;1.20;;
76550;SDS011;68768;53.156;18.164;2023-07-29T14:50:01;1.50;;;1.40;;
76550;SDS011;68768;53.156;18.164;2023-07-29T14:52:28;3.30;;;1.80;;
76550;SDS011;68768;53.156;18.164;2023-07-29T14:54:55;3.30;;;2.70;;
76550;SDS011;68768;53.156;18.164;2023-07-29T14:57:22;2.60;;;1.70;;